METAR Data
IDs: Format: Raw Decoded Include TAF

Data at: 1719 UTC 16 Oct 2021

KSXK 161715Z AUTO 26009G15KT 10SM CLR 14/01 A3018 RMK AO2